Time;durP1;ratioP1;P1;durP2;ratioP2;P2;SDS_P1;SDS_P2;PMS_P1;PMS_P2;Temp;Humidity;BMP_temperature;BMP_pressure;BME280_temperature;BME280_humidity;BME280_pressure;Samples;Min_cycle;Max_cycle;Signal;HPM_P1;HPM_P2
2023/09/13 00:02:23;;;;;;;9.52;6.03;;;512.40;2278.40;;;;;;5088712;28;20501;-59
2023/09/13 00:04:49;;;;;;;13.20;7.10;;;512.50;2278.40;;;;;;5088898;28;20028;-60
2023/09/13 00:07:14;;;;;;;14.52;6.53;;;512.50;2278.40;;;;;;5088427;28;20517;-61
2023/09/13 00:09:41;;;;;;;22.60;6.85;;;512.50;2252.80;;;;;;5088336;28;20044;-59
2023/09/13 00:12:10;;;;;;;15.85;7.45;;;512.40;2304.00;;;;;;5075529;28;20094;-60
2023/09/13 00:14:36;;;;;;;15.32;6.93;;;512.40;2304.00;;;;;;5072725;28;20028;-60
2023/09/13 00:17:02;;;;;;;15.20;6.30;;;512.30;2304.00;;;;;;5088116;28;20024;-59
2023/09/13 00:19:28;;;;;;;14.25;7.30;;;512.10;2329.60;;;;;;5088110;28;20086;-59
2023/09/13 00:21:54;;;;;;;15.40;6.82;;;512.10;2329.60;;;;;;5087865;28;20539;-60
2023/09/13 00:24:20;;;;;;;15.48;8.07;;;512.10;2329.60;;;;;;5088710;28;20031;-59
2023/09/13 00:26:46;;;;;;;17.92;7.55;;;512.10;2355.20;;;;;;5088211;28;20024;-60
2023/09/13 00:29:12;;;;;;;14.93;6.28;;;487.30;2355.20;;;;;;5088262;28;20065;-60
2023/09/13 00:31:37;;;;;;;16.50;6.78;;;512.00;2355.20;;;;;;5087888;28;20024;-60
2023/09/13 00:34:03;;;;;;;14.65;7.38;;;487.30;2380.80;;;;;;5088536;28;20020;-60
2023/09/13 00:36:30;;;;;;;14.15;7.05;;;487.30;2380.80;;;;;;5089289;28;20421;-59
2023/09/13 00:38:55;;;;;;;16.60;7.68;;;487.30;2380.80;;;;;;5091664;28;20048;-59
2023/09/13 00:41:21;;;;;;;12.45;6.70;;;487.10;2380.80;;;;;;5092602;28;20034;-60
2023/09/13 00:43:47;;;;;;;17.15;8.02;;;487.10;2380.80;;;;;;5091241;28;20378;-59
2023/09/13 00:46:13;;;;;;;15.82;7.47;;;487.10;2380.80;;;;;;5077827;28;20053;-60
2023/09/13 00:48:40;;;;;;;12.63;6.68;;;487.10;2380.80;;;;;;5068484;28;20062;-60
2023/09/13 00:51:06;;;;;;;13.88;7.15;;;487.10;2380.80;;;;;;5092007;28;20020;-60
2023/09/13 00:53:32;;;;;;;17.85;7.55;;;487.10;2380.80;;;;;;5091303;28;20386;-61
2023/09/13 00:55:59;;;;;;;15.93;7.53;;;487.00;2380.80;;;;;;5091592;28;20031;-60
2023/09/13 00:58:26;;;;;;;16.70;6.70;;;487.00;2380.80;;;;;;5091515;28;20028;-61
2023/09/13 01:00:53;;;;;;;17.50;7.18;;;487.10;2380.80;;;;;;5091685;28;20526;-61
2023/09/13 01:03:20;;;;;;;13.73;6.57;;;487.10;2380.80;;;;;;5091561;28;20070;-61
2023/09/13 01:05:49;;;;;;;16.50;6.95;;;487.10;2380.80;;;;;;5092101;28;20016;-60
2023/09/13 01:08:16;;;;;;;20.38;7.93;;;487.00;2380.80;;;;;;5090459;28;20415;-60
2023/09/13 01:10:41;;;;;;;18.40;7.20;;;486.90;2380.80;;;;;;5091379;28;20036;-60
2023/09/13 01:13:07;;;;;;;11.40;6.97;;;487.00;2380.80;;;;;;5090691;28;20099;-59
2023/09/13 01:15:40;;;;;;;16.17;7.30;;;486.90;2380.80;;;;;;5090881;28;20035;-61
2023/09/13 01:18:29;;;;;;;15.85;6.25;;;486.90;2380.80;;;;;;5090904;28;20362;-60
2023/09/13 01:21:07;;;;;;;15.43;7.55;;;487.00;2380.80;;;;;;5070671;28;20035;-60
2023/09/13 01:24:05;;;;;;;16.02;7.75;;;486.80;2380.80;;;;;;5091314;28;20074;-60
2023/09/13 01:27:01;;;;;;;12.10;6.38;;;486.90;2380.80;;;;;;5090933;28;20031;-60
2023/09/13 01:29:31;;;;;;;15.07;6.95;;;486.80;2380.80;;;;;;5007850;28;20112;-60
2023/09/13 01:31:56;;;;;;;14.90;6.82;;;486.80;2380.80;;;;;;4995530;28;20034;-60
2023/09/13 01:34:22;;;;;;;17.10;7.18;;;486.80;2380.80;;;;;;4994646;28;20053;-61
2023/09/13 01:36:48;;;;;;;13.10;6.97;;;486.80;2380.80;;;;;;5008389;28;20054;-60
2023/09/13 01:39:14;;;;;;;17.25;7.53;;;486.70;2380.80;;;;;;4998707;28;20050;-61
2023/09/13 01:41:45;;;;;;;17.08;7.47;;;486.70;2380.80;;;;;;5003593;28;20168;-60
2023/09/13 01:44:12;;;;;;;15.18;6.18;;;486.90;2380.80;;;;;;5008373;28;20018;-60
2023/09/13 01:46:45;;;;;;;14.75;6.28;;;486.80;2380.80;;;;;;5008390;28;20113;-60
2023/09/13 01:49:13;;;;;;;12.95;6.55;;;486.80;2380.80;;;;;;5008626;28;20108;-59
2023/09/13 01:51:40;;;;;;;12.13;6.45;;;486.80;2380.80;;;;;;5008582;28;20049;-60
2023/09/13 01:54:06;;;;;;;11.50;6.10;;;486.70;2380.80;;;;;;5007810;28;20396;-60
2023/09/13 01:56:32;;;;;;;12.48;6.70;;;486.70;2380.80;;;;;;5008543;28;20030;-60
2023/09/13 01:58:57;;;;;;;13.60;6.88;;;486.70;2380.80;;;;;;5007370;28;20033;-60
2023/09/13 02:01:23;;;;;;;12.40;6.72;;;486.70;2380.80;;;;;;5008083;28;20030;-60
2023/09/13 02:03:49;;;;;;;14.13;7.28;;;486.60;2380.80;;;;;;5007871;28;20030;-61
2023/09/13 02:06:15;;;;;;;16.08;7.22;;;486.60;2380.80;;;;;;5042377;28;20111;-60
2023/09/13 02:08:42;;;;;;;18.33;7.55;;;486.60;2380.80;;;;;;5076738;28;20024;-60
2023/09/13 02:11:08;;;;;;;14.68;7.03;;;486.60;2380.80;;;;;;5061750;28;20032;-59
2023/09/13 02:13:34;;;;;;;19.25;6.88;;;486.50;2380.80;;;;;;5089364;28;20024;-60
2023/09/13 02:16:01;;;;;;;14.43;6.82;;;486.50;2380.80;;;;;;5089799;28;20024;-60
2023/09/13 02:18:26;;;;;;;18.73;7.18;;;486.50;2380.80;;;;;;5089696;28;20027;-59
2023/09/13 02:20:52;;;;;;;17.52;7.25;;;461.70;2380.80;;;;;;5090070;28;20028;-60
2023/09/13 02:23:19;;;;;;;20.75;6.43;;;461.70;2380.80;;;;;;5089687;28;20050;-60
2023/09/13 02:25:45;;;;;;;16.30;7.57;;;461.70;2380.80;;;;;;5087560;28;20035;-61
2023/09/13 02:28:11;;;;;;;11.90;6.63;;;461.70;2380.80;;;;;;5083330;28;20377;-60
2023/09/13 02:30:39;;;;;;;13.05;5.95;;;461.70;2380.80;;;;;;5081300;28;20044;-60
2023/09/13 02:33:06;;;;;;;20.02;7.53;;;486.40;2380.80;;;;;;5089328;28;20129;-60
2023/09/13 02:35:32;;;;;;;13.93;7.28;;;486.50;2380.80;;;;;;5089439;28;20129;-60
2023/09/13 02:37:58;;;;;;;15.40;6.28;;;486.50;2380.80;;;;;;5089799;28;20016;-60
2023/09/13 02:40:24;;;;;;;12.88;6.22;;;486.50;2380.80;;;;;;5089421;28;20059;-60
2023/09/13 02:42:50;;;;;;;18.30;6.93;;;486.50;2380.80;;;;;;5089470;28;20020;-60
2023/09/13 02:45:16;;;;;;;17.88;6.97;;;486.40;2380.80;;;;;;5089816;28;20035;-60
2023/09/13 02:47:43;;;;;;;17.67;6.72;;;486.40;2380.80;;;;;;5072349;28;20023;-60
2023/09/13 02:50:10;;;;;;;12.43;5.93;;;486.50;2380.80;;;;;;5082963;28;20067;-60
2023/09/13 02:52:35;;;;;;;16.00;6.05;;;486.50;2380.80;;;;;;5089339;28;20048;-60
2023/09/13 02:55:05;;;;;;;16.30;5.70;;;486.40;2380.80;;;;;;5088982;28;20520;-60
2023/09/13 02:57:32;;;;;;;13.15;6.30;;;461.70;2380.80;;;;;;5089633;28;20020;-60
2023/09/13 02:59:57;;;;;;;18.90;7.00;;;461.70;2380.80;;;;;;5088586;28;20032;-60
2023/09/13 03:02:23;;;;;;;20.60;7.18;;;461.70;2380.80;;;;;;5087232;28;20470;-60
2023/09/13 03:04:51;;;;;;;17.35;6.35;;;461.70;2380.80;;;;;;5089101;28;20421;-60
2023/09/13 03:07:17;;;;;;;13.55;7.18;;;461.70;2380.80;;;;;;5089063;28;20488;-60
2023/09/13 03:09:52;;;;;;;15.88;7.60;;;461.50;2380.80;;;;;;5088801;28;20093;-60
2023/09/13 03:12:17;;;;;;;13.32;7.07;;;461.50;2380.80;;;;;;5088924;28;20472;-60
2023/09/13 03:14:43;;;;;;;16.15;7.63;;;461.40;2380.80;;;;;;5088869;28;20086;-60
2023/09/13 03:17:11;;;;;;;17.45;7.07;;;461.40;2380.80;;;;;;5089111;28;20027;-60
2023/09/13 03:19:38;;;;;;;11.23;6.93;;;461.40;2380.80;;;;;;5088620;28;20111;-60
2023/09/13 03:22:04;;;;;;;13.93;7.18;;;461.40;2380.80;;;;;;5088870;28;20468;-60
2023/09/13 03:24:30;;;;;;;16.85;7.47;;;461.30;2380.80;;;;;;5073107;28;20055;-59
2023/09/13 03:26:56;;;;;;;19.10;7.45;;;461.30;2380.80;;;;;;5084273;28;20054;-59
2023/09/13 03:29:22;;;;;;;19.08;7.82;;;461.20;2380.80;;;;;;5088343;28;20028;-59
2023/09/13 03:31:48;;;;;;;22.13;7.97;;;461.20;2380.80;;;;;;5089289;28;20435;-60
2023/09/13 03:34:14;;;;;;;16.70;6.95;;;461.10;2380.80;;;;;;5088362;28;20019;-60
2023/09/13 03:36:40;;;;;;;16.30;7.57;;;461.10;2380.80;;;;;;5089219;28;20024;-60
2023/09/13 03:39:06;;;;;;;16.70;6.80;;;461.20;2380.80;;;;;;5087998;28;20048;-60
2023/09/13 03:41:32;;;;;;;14.07;7.43;;;461.10;2380.80;;;;;;5089059;28;20063;-60
2023/09/13 03:43:58;;;;;;;17.67;6.72;;;461.10;2380.80;;;;;;5088817;28;20382;-60
2023/09/13 03:46:24;;;;;;;15.48;7.43;;;461.10;2380.80;;;;;;5088321;28;20028;-60
2023/09/13 03:48:50;;;;;;;18.92;6.80;;;461.20;2380.80;;;;;;5088438;28;20031;-60
2023/09/13 03:51:15;;;;;;;14.68;7.03;;;461.20;2380.80;;;;;;5088816;28;20059;-60
2023/09/13 03:53:41;;;;;;;13.88;6.82;;;461.20;2380.80;;;;;;5080532;28;20017;-59
2023/09/13 03:56:07;;;;;;;19.27;7.63;;;461.20;2380.80;;;;;;5066706;28;20032;-60
2023/09/13 03:58:34;;;;;;;21.30;7.55;;;461.20;2380.80;;;;;;5084498;28;20493;-60
2023/09/13 04:01:00;;;;;;;16.88;7.05;;;461.20;2380.80;;;;;;5088749;28;20016;-60
2023/09/13 04:03:26;;;;;;;13.27;7.43;;;461.30;2380.80;;;;;;5087985;28;20107;-60
2023/09/13 04:05:52;;;;;;;22.52;8.48;;;461.30;2380.80;;;;;;5088661;28;20103;-59
2023/09/13 04:08:18;;;;;;;15.70;6.72;;;461.40;2380.80;;;;;;5088415;28;20032;-61
2023/09/13 04:10:44;;;;;;;14.50;6.75;;;461.40;2380.80;;;;;;5088427;28;20040;-60
2023/09/13 04:13:10;;;;;;;19.70;7.22;;;461.40;2380.80;;;;;;5091465;28;20024;-60
2023/09/13 04:15:35;;;;;;;13.52;7.43;;;461.40;2380.80;;;;;;5092270;28;20039;-60
2023/09/13 04:18:02;;;;;;;12.73;6.80;;;461.40;2380.80;;;;;;5092050;28;20020;-60
2023/09/13 04:20:28;;;;;;;15.65;7.43;;;461.40;2380.80;;;;;;5092472;28;20085;-60
2023/09/13 04:22:54;;;;;;;14.38;7.35;;;461.30;2380.80;;;;;;5091694;28;20028;-60
2023/09/13 04:25:19;;;;;;;17.27;6.78;;;461.30;2380.80;;;;;;5091543;28;20099;-61
2023/09/13 04:27:46;;;;;;;21.42;7.57;;;461.30;2380.80;;;;;;5062567;28;20044;-61
2023/09/13 04:30:14;;;;;;;18.23;6.70;;;461.30;2380.80;;;;;;5081897;28;20748;-59
2023/09/13 04:32:40;;;;;;;18.92;6.95;;;461.30;2380.80;;;;;;5091957;28;20031;-60
2023/09/13 04:35:07;;;;;;;19.50;7.00;;;461.30;2380.80;;;;;;5091856;28;20020;-61
2023/09/13 04:37:33;;;;;;;18.90;7.35;;;461.20;2380.80;;;;;;5091362;28;20009;-60
2023/09/13 04:40:00;;;;;;;15.70;7.20;;;461.40;2380.80;;;;;;5091834;28;20428;-60
2023/09/13 04:42:26;;;;;;;15.38;7.18;;;461.40;2380.80;;;;;;5089174;28;20028;-61
2023/09/13 04:44:52;;;;;;;21.42;7.97;;;461.50;2380.80;;;;;;5091715;28;20024;-60
2023/09/13 04:47:18;;;;;;;23.35;7.68;;;461.50;2380.80;;;;;;5090716;28;20024;-61
2023/09/13 04:49:43;;;;;;;15.25;6.75;;;461.60;2380.80;;;;;;5091642;28;20065;-60
2023/09/13 04:52:10;;;;;;;14.32;6.15;;;461.70;2380.80;;;;;;5091219;28;20401;-61
2023/09/13 04:54:36;;;;;;;17.40;6.43;;;461.70;2380.80;;;;;;5091466;28;20084;-60
2023/09/13 04:57:03;;;;;;;14.65;6.55;;;486.40;2380.80;;;;;;5091980;28;20019;-60
2023/09/13 04:59:42;;;;;;;21.65;6.78;;;486.50;2380.80;;;;;;5085571;28;20052;-61
2023/09/13 05:02:11;;;;;;;19.33;8.00;;;486.60;2380.80;;;;;;5076524;28;20012;-60
2023/09/13 05:04:37;;;;;;;20.60;8.40;;;486.70;2380.80;;;;;;5091175;28;20024;-61
2023/09/13 05:07:03;;;;;;;17.50;6.97;;;486.80;2380.80;;;;;;5091562;28;20024;-61
2023/09/13 05:09:29;;;;;;;19.45;7.15;;;486.80;2380.80;;;;;;5091257;28;20511;-61
2023/09/13 05:11:54;;;;;;;16.33;6.97;;;486.90;2380.80;;;;;;5091236;28;20044;-61
2023/09/13 05:14:20;;;;;;;14.13;7.20;;;487.00;2380.80;;;;;;5091296;28;20390;-61
2023/09/13 05:16:46;;;;;;;13.85;6.68;;;487.10;2380.80;;;;;;5090489;28;20027;-61
2023/09/13 05:19:11;;;;;;;15.45;6.82;;;487.30;2380.80;;;;;;5091231;28;20027;-60
2023/09/13 05:21:38;;;;;;;18.92;8.05;;;487.30;2380.80;;;;;;5091189;28;20073;-60
2023/09/13 05:24:04;;;;;;;15.48;8.43;;;512.10;2380.80;;;;;;5090385;28;20034;-61
2023/09/13 05:26:30;;;;;;;20.23;8.15;;;512.30;2380.80;;;;;;5090893;28;20103;-60
2023/09/13 05:28:55;;;;;;;19.10;8.18;;;512.60;2380.80;;;;;;5090590;28;20416;-62
2023/09/13 05:31:21;;;;;;;13.30;7.38;;;512.70;2380.80;;;;;;5090606;28;20028;-60
2023/09/13 05:33:47;;;;;;;19.73;8.15;;;512.80;2380.80;;;;;;5075905;28;20036;-61
2023/09/13 05:36:14;;;;;;;24.42;7.10;;;512.90;2380.80;;;;;;5068185;28;20020;-61
2023/09/13 05:38:41;;;;;;;13.50;6.57;;;537.90;2406.40;;;;;;5090370;28;20020;-61
2023/09/13 05:41:10;;;;;;;15.98;8.10;;;538.20;2406.40;;;;;;5089162;28;20107;-61
2023/09/13 05:43:38;;;;;;;15.82;7.35;;;538.40;2406.40;;;;;;5090603;28;20074;-60
2023/09/13 05:46:04;;;;;;;15.05;7.20;;;563.40;2432.00;;;;;;5090884;28;20020;-62
2023/09/13 05:48:30;;;;;;;17.48;8.07;;;563.20;2432.00;;;;;;5090461;28;20024;-61
2023/09/13 05:50:56;;;;;;;15.60;8.02;;;538.50;2406.40;;;;;;5089977;28;20474;-61
2023/09/13 05:53:22;;;;;;;17.60;8.38;;;563.50;2432.00;;;;;;5090835;28;20033;-61
2023/09/13 05:55:48;;;;;;;19.63;7.75;;;563.80;2432.00;;;;;;5090771;28;20708;-61
2023/09/13 05:58:13;;;;;;;14.40;6.55;;;564.10;2432.00;;;;;;5088651;28;20024;-62
2023/09/13 06:00:43;;;;;;;19.45;8.27;;;589.50;2380.80;;;;;;5090608;28;20028;-60
2023/09/13 06:03:10;;;;;;;15.52;7.35;;;640.00;2227.20;;;;;;5090093;28;20101;-61
2023/09/13 06:05:35;;;;;;;19.67;8.57;;;691.20;2073.60;;;;;;5090214;28;20177;-61
2023/09/13 06:08:02;;;;;;;15.68;8.95;;;717.70;1894.40;;;;;;5090053;28;20476;-61
2023/09/13 06:10:28;;;;;;;16.05;8.65;;;768.40;1792.00;;;;;;5088829;28;20042;-61
2023/09/13 06:12:54;;;;;;;18.70;8.48;;;794.30;1689.60;;;;;;5073620;28;20104;-62
2023/09/13 06:15:19;;;;;;;16.27;9.57;;;845.00;1638.40;;;;;;5084447;28;20024;-61
2023/09/13 06:17:45;;;;;;;21.45;9.57;;;870.60;1536.00;;;;;;5089975;28;20428;-63
2023/09/13 06:20:11;;;;;;;17.17;9.65;;;896.20;1433.60;;;;;;5090156;28;20073;-61
2023/09/13 06:22:37;;;;;;;16.42;9.15;;;922.00;1408.00;;;;;;5090054;28;20044;-63
2023/09/13 06:25:03;;;;;;;12.80;8.73;;;921.70;1408.00;;;;;;5090292;28;20055;-61
2023/09/13 06:27:29;;;;;;;20.67;10.00;;;922.00;1408.00;;;;;;5090110;28;20031;-63
2023/09/13 06:29:56;;;;;;;23.25;10.40;;;922.50;1356.80;;;;;;5089684;28;20410;-63
2023/09/13 06:32:21;;;;;;;18.77;11.02;;;922.50;1356.80;;;;;;5089888;28;20063;-61
2023/09/13 06:34:47;;;;;;;16.73;10.13;;;922.00;1382.40;;;;;;5088818;28;20047;-62
2023/09/13 06:37:13;;;;;;;13.80;9.55;;;921.70;1382.40;;;;;;5089971;28;20077;-61
2023/09/13 06:39:39;;;;;;;18.55;11.15;;;922.00;1408.00;;;;;;5089385;28;20098;-62
2023/09/13 06:42:06;;;;;;;14.27;9.90;;;947.20;1356.80;;;;;;5089175;28;20103;-62
2023/09/13 06:44:32;;;;;;;15.05;9.70;;;922.50;1356.80;;;;;;5068758;28;20014;-62
2023/09/13 06:46:59;;;;;;;13.30;10.52;;;948.10;1331.20;;;;;;5055135;28;20024;-62
2023/09/13 06:49:24;;;;;;;19.42;10.25;;;998.60;1280.00;;;;;;5068966;28;20033;-62
2023/09/13 06:51:51;;;;;;;17.05;10.90;;;998.50;1280.00;;;;;;5069292;28;20482;-62
2023/09/13 06:54:18;;;;;;;16.20;11.77;;;973.70;1280.00;;;;;;5073943;28;20020;-62
2023/09/13 06:56:44;;;;;;;13.15;10.10;;;998.70;1280.00;;;;;;5089196;28;20035;-63
2023/09/13 06:59:10;;;;;;;20.23;12.73;;;1049.60;1228.80;;;;;;5088897;28;20020;-63
2023/09/13 07:01:36;;;;;;;15.07;13.35;;;1075.40;1177.60;;;;;;5088467;28;20031;-62
2023/09/13 07:04:03;;;;;;;18.15;12.73;;;1075.70;1152.00;;;;;;5081514;28;20153;-63
2023/09/13 07:06:29;;;;;;;16.85;12.93;;;1075.90;1126.40;;;;;;5087956;28;20515;-63
2023/09/13 07:08:55;;;;;;;20.98;13.93;;;1100.80;1152.00;;;;;;5089072;28;20074;-64
2023/09/13 07:11:22;;;;;;;19.95;12.07;;;1075.50;1152.00;;;;;;5083757;28;20479;-62
2023/09/13 07:13:48;;;;;;;17.08;12.68;;;1101.30;1126.40;;;;;;5086429;28;20470;-63
2023/09/13 07:16:14;;;;;;;17.70;14.60;;;1101.00;1152.00;;;;;;5082212;28;20075;-63
2023/09/13 07:18:40;;;;;;;17.08;13.10;;;1101.50;1126.40;;;;;;5069211;28;20061;-63
2023/09/13 07:21:06;;;;;;;15.20;13.07;;;1101.50;1126.40;;;;;;5088738;28;20031;-64
2023/09/13 07:23:31;;;;;;;20.75;14.38;;;1126.90;1126.40;;;;;;5088332;28;20016;-63
2023/09/13 07:25:57;;;;;;;20.23;14.98;;;1101.10;1152.00;;;;;;5088626;28;20023;-62
2023/09/13 07:28:23;;;;;;;18.25;13.93;;;1075.90;1152.00;;;;;;5088771;28;20347;-64
2023/09/13 07:30:49;;;;;;;15.10;13.32;;;1101.00;1177.60;;;;;;5088975;28;20046;-63
2023/09/13 07:33:14;;;;;;;19.25;14.20;;;1050.40;1228.80;;;;;;5088912;28;20024;-64
2023/09/13 07:35:40;;;;;;;19.13;13.77;;;1049.90;1228.80;;;;;;5089111;28;20024;-63
2023/09/13 07:38:06;;;;;;;17.50;15.10;;;1075.50;1203.20;;;;;;5088090;28;20031;-64
2023/09/13 07:40:31;;;;;;;21.13;14.52;;;1075.20;1203.20;;;;;;5088544;28;20051;-63
2023/09/13 07:42:59;;;;;;;17.50;14.60;;;1050.10;1228.80;;;;;;5087121;28;20024;-63
2023/09/13 07:45:24;;;;;;;17.73;14.73;;;1050.40;1203.20;;;;;;5087403;28;20047;-63
2023/09/13 07:47:50;;;;;;;16.42;14.45;;;1075.70;1177.60;;;;;;5091424;28;20459;-63
2023/09/13 07:50:32;;;;;;;16.40;14.63;;;1100.80;1177.60;;;;;;5085910;28;20037;-64
2023/09/13 07:52:58;;;;;;;18.52;16.58;;;1127.30;1100.80;;;;;;5064460;28;20037;-63
2023/09/13 07:55:26;;;;;;;19.35;15.45;;;1101.10;1152.00;;;;;;5087840;28;20031;-63
2023/09/13 07:57:52;;;;;;;17.65;14.85;;;1101.60;1100.80;;;;;;5091155;28;20023;-64
2023/09/13 08:00:18;;;;;;;15.95;14.35;;;1127.00;1075.20;;;;;;5091367;28;20028;-64
2023/09/13 08:02:46;;;;;;;22.98;16.40;;;1126.50;1100.80;;;;;;5090648;28;20060;-64
2023/09/13 08:05:12;;;;;;;18.63;16.17;;;1101.70;1075.20;;;;;;5091076;28;20025;-63
2023/09/13 08:07:38;;;;;;;19.75;17.17;;;1075.90;1075.20;;;;;;5091202;28;20032;-63
2023/09/13 08:10:04;;;;;;;20.13;18.02;;;1075.40;1075.20;;;;;;5089982;28;20425;-64
2023/09/13 08:12:30;;;;;;;22.52;17.52;;;1100.80;1126.40;;;;;;5090915;28;20020;-63
2023/09/13 08:14:56;;;;;;;19.25;17.33;;;1101.40;1100.80;;;;;;5079479;28;20052;-63
2023/09/13 08:17:22;;;;;;;21.63;16.83;;;1076.10;1100.80;;;;;;5091388;28;20124;-64
2023/09/13 08:19:49;;;;;;;20.50;16.77;;;1075.30;1152.00;;;;;;5073434;28;20016;-62
2023/09/13 08:22:15;;;;;;;21.25;17.17;;;1101.20;1075.20;;;;;;5071329;28;20052;-63
2023/09/13 08:24:40;;;;;;;21.42;16.27;;;1126.40;1075.20;;;;;;5067985;28;20121;-64
2023/09/13 08:27:06;;;;;;;19.05;15.65;;;1101.30;1075.20;;;;;;5090699;28;20440;-63
2023/09/13 08:29:33;;;;;;;17.15;15.65;;;1101.50;1024.00;;;;;;5090379;28;20507;-64
2023/09/13 08:31:59;;;;;;;19.20;17.30;;;1152.20;1024.00;;;;;;5090905;28;20044;-64
2023/09/13 08:34:25;;;;;;;16.95;15.23;;;1126.40;1049.60;;;;;;5089457;28;20469;-63
2023/09/13 08:36:55;;;;;;;16.23;15.02;;;1100.80;1075.20;;;;;;5086758;28;20024;-64
2023/09/13 08:39:20;;;;;;;17.23;15.93;;;1101.30;1049.60;;;;;;5090034;28;20047;-64
2023/09/13 08:41:50;;;;;;;17.90;16.13;;;1126.90;1024.00;;;;;;5090260;28;20024;-64
2023/09/13 08:44:22;;;;;;;17.85;16.33;;;1152.50;998.40;;;;;;5089989;28;20020;-64
2023/09/13 08:46:56;;;;;;;16.50;14.93;;;1126.40;1075.20;;;;;;5090115;28;20024;-63
2023/09/13 08:49:23;;;;;;;17.23;15.63;;;1050.50;1100.80;;;;;;5090275;28;20111;-62
2023/09/13 08:51:51;;;;;;;16.52;15.00;;;1024.60;1100.80;;;;;;5090003;28;20024;-63
2023/09/13 08:54:17;;;;;;;16.25;13.52;;;998.50;1152.00;;;;;;5090254;28;20012;-64
2023/09/13 08:56:43;;;;;;;13.43;12.13;;;947.50;1203.20;;;;;;5089658;28;20031;-64
2023/09/13 08:59:10;;;;;;;13.95;12.55;;;947.40;1203.20;;;;;;5077866;28;20067;-63
2023/09/13 09:01:36;;;;;;;21.00;11.77;;;947.20;1228.80;;;;;;5083282;28;20032;-64
2023/09/13 09:04:03;;;;;;;17.80;12.13;;;947.20;1228.80;;;;;;5090332;28;20035;-63
2023/09/13 09:06:33;;;;;;;16.73;11.63;;;922.50;1228.80;;;;;;5091039;28;20023;-62
2023/09/13 09:09:00;;;;;;;17.83;11.13;;;921.80;1254.40;;;;;;5091734;28;20497;-63
2023/09/13 09:11:27;;;;;;;13.50;10.00;;;922.00;1254.40;;;;;;5090368;28;20028;-62
2023/09/13 09:14:00;;;;;;;13.00;10.43;;;896.90;1203.20;;;;;;5090974;28;20486;-63
2023/09/13 09:16:27;;;;;;;11.98;9.38;;;896.70;1228.80;;;;;;5090733;28;20020;-62
2023/09/13 09:19:00;;;;;;;10.65;9.60;;;896.50;1228.80;;;;;;5090949;28;20489;-63
2023/09/13 09:21:26;;;;;;;11.70;10.60;;;896.70;1228.80;;;;;;5076727;28;20107;-63
2023/09/13 09:23:53;;;;;;;11.18;10.05;;;896.70;1254.40;;;;;;5077882;28;20433;-62
2023/09/13 09:26:20;;;;;;;11.98;10.38;;;896.10;1228.80;;;;;;5078637;28;20032;-64
2023/09/13 09:28:46;;;;;;;10.93;9.35;;;871.30;1228.80;;;;;;5090905;28;20020;-64
2023/09/13 09:31:12;;;;;;;10.63;9.52;;;896.00;1228.80;;;;;;5068899;28;20427;-63
2023/09/13 09:33:39;;;;;;;11.02;9.32;;;870.90;1254.40;;;;;;5083340;28;20055;-63
2023/09/13 09:36:08;;;;;;;13.68;10.00;;;870.90;1254.40;;;;;;5090524;28;20486;-62
2023/09/13 09:38:34;;;;;;;10.80;9.23;;;870.90;1254.40;;;;;;5089908;28;20505;-63
2023/09/13 09:41:02;;;;;;;11.68;10.15;;;870.90;1280.00;;;;;;5089665;28;20490;-62
2023/09/13 09:43:29;;;;;;;10.30;8.75;;;871.00;1280.00;;;;;;5078279;28;20107;-61
2023/09/13 09:45:55;;;;;;;11.23;8.60;;;870.80;1254.40;;;;;;5086677;28;20028;-63
2023/09/13 09:48:21;;;;;;;12.30;9.07;;;870.60;1280.00;;;;;;5076650;28;20027;-61
2023/09/13 09:50:54;;;;;;;14.60;9.30;;;870.80;1280.00;;;;;;5082394;28;20393;-61
2023/09/13 09:53:24;;;;;;;10.50;9.32;;;870.90;1280.00;;;;;;5078141;28;20086;-62
2023/09/13 09:55:51;;;;;;;9.65;8.75;;;870.90;1228.80;;;;;;5081423;28;20024;-63
2023/09/13 09:58:17;;;;;;;9.80;8.75;;;870.90;1228.80;;;;;;5082722;28;20020;-63
2023/09/13 10:00:45;;;;;;;8.98;7.68;;;871.00;1228.80;;;;;;5075104;28;20552;-63
2023/09/13 10:03:17;;;;;;;12.88;8.05;;;871.10;1228.80;;;;;;5077289;28;20029;-61
2023/09/13 10:06:03;;;;;;;11.57;9.15;;;845.70;1254.40;;;;;;5076181;28;20083;-63
2023/09/13 10:08:55;;;;;;;13.32;9.32;;;845.70;1254.40;;;;;;5063138;28;20108;-62
2023/09/13 10:11:22;;;;;;;14.35;8.90;;;870.40;1254.40;;;;;;5059873;28;20052;-63
2023/09/13 10:13:48;;;;;;;13.38;8.60;;;870.50;1254.40;;;;;;5080405;28;20020;-62
2023/09/13 10:16:16;;;;;;;11.98;7.43;;;870.50;1254.40;;;;;;5067216;28;20036;-62
2023/09/13 10:18:48;;;;;;;14.23;9.13;;;870.50;1254.40;;;;;;5084570;28;20024;-62
2023/09/13 10:21:32;;;;;;;10.77;7.75;;;870.70;1254.40;;;;;;5089868;28;20028;-63
2023/09/13 10:24:08;;;;;;;13.13;8.73;;;870.70;1228.80;;;;;;5084739;28;20059;-61
2023/09/13 10:26:35;;;;;;;9.10;7.63;;;870.70;1228.80;;;;;;5083007;28;20751;-62
2023/09/13 10:29:25;;;;;;;10.20;8.18;;;845.70;1203.20;;;;;;5063124;28;20027;-62
2023/09/13 10:31:55;;;;;;;11.70;7.60;;;845.50;1254.40;;;;;;5089933;28;20028;-62
2023/09/13 10:34:26;;;;;;;9.43;7.15;;;845.40;1254.40;;;;;;5089954;28;20051;-63
2023/09/13 10:37:18;;;;;;;10.63;7.40;;;845.70;1228.80;;;;;;5085818;28;20073;-62
2023/09/13 10:39:49;;;;;;;9.38;8.02;;;845.50;1203.20;;;;;;5072130;28;20040;-63
2023/09/13 10:42:15;;;;;;;11.93;7.40;;;845.50;1228.80;;;;;;5084649;28;20032;-62
2023/09/13 10:44:41;;;;;;;8.95;7.40;;;845.50;1228.80;;;;;;5089843;28;20050;-62
2023/09/13 10:47:08;;;;;;;13.07;6.85;;;845.50;1203.20;;;;;;5088766;28;20107;-62
2023/09/13 10:49:37;;;;;;;10.73;7.40;;;845.40;1228.80;;;;;;5089449;28;20067;-64
2023/09/13 10:52:03;;;;;;;7.47;6.43;;;845.40;1203.20;;;;;;5079990;28;20429;-62
2023/09/13 10:54:31;;;;;;;8.55;7.28;;;845.40;1203.20;;;;;;5069235;28;20021;-64
2023/09/13 10:56:57;;;;;;;10.27;7.75;;;845.20;1203.20;;;;;;5069074;28;20028;-62
2023/09/13 10:59:24;;;;;;;11.02;8.10;;;845.20;1228.80;;;;;;5068386;28;20032;-63
2023/09/13 11:01:51;;;;;;;9.70;7.30;;;845.30;1228.80;;;;;;5065563;28;20144;-63
2023/09/13 11:04:20;;;;;;;10.07;6.35;;;845.30;1228.80;;;;;;5066832;28;20044;-64
2023/09/13 11:06:51;;;;;;;9.43;7.15;;;845.40;1228.80;;;;;;5073899;28;20040;-64
2023/09/13 11:09:18;;;;;;;8.93;6.55;;;845.40;1203.20;;;;;;5066220;28;20040;-63
2023/09/13 11:11:48;;;;;;;10.45;7.85;;;845.20;1203.20;;;;;;5063068;28;20044;-62
2023/09/13 11:14:19;;;;;;;11.63;6.22;;;845.20;1228.80;;;;;;5078881;28;20443;-62
2023/09/13 11:16:47;;;;;;;11.98;6.72;;;845.20;1203.20;;;;;;5065194;28;20566;-62
2023/09/13 11:19:17;;;;;;;10.02;6.63;;;845.20;1177.60;;;;;;5063388;28;20024;-62
2023/09/13 11:21:51;;;;;;;8.43;6.43;;;845.30;1177.60;;;;;;5082732;28;20032;-63
2023/09/13 11:24:35;;;;;;;14.57;6.43;;;845.30;1177.60;;;;;;5068131;28;20091;-62
2023/09/13 11:27:11;;;;;;;10.65;6.35;;;845.20;1177.60;;;;;;5083684;28;20458;-62
2023/09/13 11:29:45;;;;;;;8.38;7.00;;;844.90;1177.60;;;;;;5088489;28;20036;-62
2023/09/13 11:32:25;;;;;;;13.50;7.00;;;820.10;1126.40;;;;;;5079101;28;20021;-62
2023/09/13 11:34:59;;;;;;;9.05;6.35;;;844.80;1177.60;;;;;;5083627;28;20035;-61
2023/09/13 11:37:26;;;;;;;10.05;6.65;;;844.90;1177.60;;;;;;5086087;28;20206;-62
2023/09/13 11:40:10;;;;;;;8.77;6.82;;;844.80;1177.60;;;;;;5086343;28;20059;-62
2023/09/13 11:42:37;;;;;;;10.63;6.47;;;845.10;1177.60;;;;;;5072366;28;20522;-62
2023/09/13 11:45:09;;;;;;;8.90;6.30;;;845.10;1152.00;;;;;;5088557;28;20107;-62
2023/09/13 11:47:36;;;;;;;9.77;7.28;;;845.20;1152.00;;;;;;5088751;28;20478;-61
2023/09/13 11:50:03;;;;;;;12.07;6.80;;;845.10;1126.40;;;;;;5089301;28;20047;-61
2023/09/13 11:53:10;;;;;;;9.80;5.97;;;844.90;1152.00;;;;;;5089417;28;20400;-61
2023/09/13 11:55:45;;;;;;;9.75;6.75;;;845.20;1152.00;;;;;;5088011;28;20363;-62
2023/09/13 11:58:16;;;;;;;8.98;6.55;;;845.00;1126.40;;;;;;5088627;28;20027;-62
2023/09/13 12:00:43;;;;;;;8.77;5.88;;;845.10;1126.40;;;;;;5087585;28;20571;-63
2023/09/13 12:03:09;;;;;;;9.80;6.85;;;845.00;1177.60;;;;;;5088809;28;20057;-62
2023/09/13 12:05:38;;;;;;;11.05;6.70;;;845.20;1126.40;;;;;;5088734;28;20055;-62
2023/09/13 12:08:25;;;;;;;8.32;6.68;;;845.20;1100.80;;;;;;5087811;28;20028;-62
2023/09/13 12:10:51;;;;;;;14.23;6.22;;;845.30;1075.20;;;;;;5086929;28;20044;-62